CheckWX is a tool to help pilots better visualize weather data.  It is not intended as a substitute for an official pre-flight weather briefing.

03:29:12 UTC

KPEA METAR
Pella Municipal Airport
Pella, Iowa, USA
Current

14 mins ago

KPEA 270315Z AUTO 12003KT 10SM SCT045 21/17 A3003 RMK AO2 T02080174
Observed
May-27 @ 03:15 UTC
Wind
  • 120° at 3 KTS
Visibility
10 SM
Flight Rules
VFR
Cloud Levels
  • Scattered at 4,500' AGL
Temperature
21°C / 70°F
Dewpoint
17°C / 63°F
Humidity
78%
Altimeter
30.03" Hg
Pressure
1016.92 hPa
Previous

34 mins ago

KPEA 270255Z AUTO 12004KT 10SM CLR 21/17 A3002 RMK AO2 T02120172
Observed
May-27 @ 02:55 UTC
Wind
  • 120° at 4 KTS
Visibility
10 SM
Flight Rules
VFR
Cloud Levels
  • Clear skies
Temperature
21°C / 70°F
Dewpoint
17°C / 63°F
Humidity
78%
Altimeter
30.02" Hg
Pressure
1016.62 hPa
Previous

54 mins ago

KPEA 270235Z AUTO 10003KT 10SM CLR 22/17 A3001 RMK AO2 T02150172
Observed
May-27 @ 02:35 UTC
Wind
  • 100° at 3 KTS
Visibility
10 SM
Flight Rules
VFR
Cloud Levels
  • Clear skies
Temperature
22°C / 72°F
Dewpoint
17°C / 63°F
Humidity
73%
Altimeter
30.01" Hg
Pressure
1016.22 hPa